createdAt,value
2022-12-25T00:00:40.752Z,7.25
2022-12-25T00:03:08.606Z,7.53
2022-12-25T00:05:38.299Z,6.32
2022-12-25T00:08:05.793Z,6.40
2022-12-25T00:10:33.210Z,6.05
2022-12-25T00:13:00.478Z,6.45
2022-12-25T00:15:27.750Z,6.72
2022-12-25T00:17:57.839Z,5.90
2022-12-25T00:20:25.085Z,6.78
2022-12-25T00:22:52.365Z,7.32
2022-12-25T00:25:19.698Z,6.30
2022-12-25T00:27:47.031Z,6.97
2022-12-25T00:30:14.358Z,6.85
2022-12-25T00:32:42.247Z,6.78
2022-12-25T00:35:09.702Z,6.25
2022-12-25T00:37:36.920Z,7.03
2022-12-25T00:40:04.220Z,7.18
2022-12-25T00:42:31.558Z,6.55
2022-12-25T00:44:58.852Z,6.50
2022-12-25T00:47:26.175Z,6.07
2022-12-25T00:49:53.520Z,7.13
2022-12-25T00:52:20.843Z,5.88
2022-12-25T00:54:48.142Z,5.95
2022-12-25T00:57:15.445Z,6.40
2022-12-25T00:59:42.740Z,6.35
2022-12-25T01:02:25.364Z,6.78
2022-12-25T01:04:54.524Z,6.40
2022-12-25T01:07:22.406Z,6.22
2022-12-25T01:10:08.446Z,6.65
2022-12-25T01:12:39.297Z,6.95
2022-12-25T01:15:07.975Z,5.82
2022-12-25T01:17:35.273Z,5.95
2022-12-25T01:20:02.931Z,6.43
2022-12-25T01:22:30.125Z,5.75
2022-12-25T01:24:57.359Z,6.55
2022-12-25T01:27:26.829Z,6.10
2022-12-25T01:29:54.574Z,6.38
2022-12-25T01:32:21.805Z,6.50
2022-12-25T01:34:55.478Z,6.35
2022-12-25T01:37:24.656Z,6.07
2022-12-25T01:39:52.021Z,6.28
2022-12-25T01:42:20.525Z,6.60
2022-12-25T01:44:48.582Z,6.38
2022-12-25T01:47:17.897Z,6.68
2022-12-25T01:49:47.133Z,6.72
2022-12-25T01:52:33.071Z,6.90
2022-12-25T01:55:04.145Z,7.03
2022-12-25T01:57:33.110Z,6.60
2022-12-25T02:00:01.821Z,6.93
2022-12-25T02:02:32.334Z,6.35
2022-12-25T02:05:02.210Z,7.40
2022-12-25T02:07:30.366Z,6.75
2022-12-25T02:09:57.624Z,6.95
2022-12-25T02:12:31.475Z,7.20
2022-12-25T02:15:05.972Z,6.85
2022-12-25T02:17:36.705Z,7.15
2022-12-25T02:20:04.160Z,6.82
2022-12-25T02:22:50.302Z,6.70
2022-12-25T02:25:27.138Z,6.88
2022-12-25T02:27:59.750Z,6.72
2022-12-25T02:30:27.557Z,6.80
2022-12-25T02:33:21.395Z,6.97
2022-12-25T02:35:51.696Z,6.63
2022-12-25T02:38:22.467Z,6.40
2022-12-25T02:40:56.762Z,7.40
2022-12-25T02:43:46.528Z,7.45
2022-12-25T02:46:34.032Z,6.38
2022-12-25T02:49:22.497Z,6.53
2022-12-25T02:52:12.270Z,6.93
2022-12-25T02:55:02.209Z,6.70
2022-12-25T02:57:51.951Z,6.43
2022-12-25T03:00:39.434Z,6.40
2022-12-25T03:03:26.495Z,7.03
2022-12-25T03:06:15.588Z,7.07
2022-12-25T03:08:43.975Z,7.80
2022-12-25T03:11:31.047Z,6.88
2022-12-25T03:14:22.130Z,6.80
2022-12-25T03:16:51.236Z,6.50
2022-12-25T03:19:37.514Z,6.95
2022-12-25T03:22:24.558Z,7.45
2022-12-25T03:25:10.184Z,6.65
2022-12-25T03:27:38.401Z,7.30
2022-12-25T03:30:24.677Z,7.05
2022-12-25T03:32:51.948Z,7.07
2022-12-25T03:35:31.220Z,6.97
2022-12-25T03:38:10.505Z,7.65
2022-12-25T03:40:56.384Z,6.85
2022-12-25T03:43:50.927Z,6.45
2022-12-25T03:46:41.719Z,7.28
2022-12-25T03:49:41.241Z,6.68
2022-12-25T03:52:30.414Z,7.10
2022-12-25T03:55:18.767Z,6.90
2022-12-25T03:58:04.992Z,7.35
2022-12-25T04:00:50.946Z,6.80
2022-12-25T04:03:36.656Z,7.20
2022-12-25T04:06:22.739Z,6.97
2022-12-25T04:09:08.357Z,7.28
2022-12-25T04:12:00.479Z,7.13
2022-12-25T04:14:48.154Z,7.85
2022-12-25T04:17:33.863Z,6.63
2022-12-25T04:20:19.462Z,7.13
2022-12-25T04:23:25.737Z,6.90
2022-12-25T04:26:11.639Z,6.40
2022-12-25T04:28:57.143Z,6.20
2022-12-25T04:31:43.142Z,6.47
2022-12-25T04:34:29.062Z,6.20
2022-12-25T04:36:56.285Z,6.63
2022-12-25T04:39:23.534Z,6.53
2022-12-25T04:41:50.772Z,6.22
2022-12-25T04:44:19.623Z,6.50
2022-12-25T04:46:46.910Z,6.07
2022-12-25T04:49:14.233Z,6.43
2022-12-25T04:51:41.535Z,6.25
2022-12-25T04:54:08.833Z,6.47
2022-12-25T04:56:41.648Z,5.88
2022-12-25T04:59:12.815Z,6.15
2022-12-25T05:01:40.131Z,5.90
2022-12-25T05:04:07.780Z,5.32
2022-12-25T05:06:35.080Z,5.57
2022-12-25T05:09:02.360Z,5.63
2022-12-25T05:11:29.547Z,5.82
2022-12-25T05:13:57.832Z,5.68
2022-12-25T05:16:26.409Z,5.68
2022-12-25T05:18:53.788Z,4.93
2022-12-25T05:21:21.254Z,5.97
2022-12-25T05:23:52.929Z,5.53
2022-12-25T05:26:25.404Z,5.50
2022-12-25T05:28:53.160Z,5.38
2022-12-25T05:31:20.895Z,5.47
2022-12-25T05:33:51.891Z,5.10
2022-12-25T05:36:19.540Z,5.80
2022-12-25T05:38:46.846Z,5.45
2022-12-25T05:41:14.154Z,5.82
2022-12-25T05:43:41.419Z,5.20
2022-12-25T05:46:09.579Z,5.00
2022-12-25T05:48:37.975Z,4.40
2022-12-25T05:51:06.339Z,5.05
2022-12-25T05:53:33.605Z,4.45
2022-12-25T05:56:02.911Z,4.88
2022-12-25T05:58:31.038Z,4.90
2022-12-25T06:00:58.443Z,4.90
2022-12-25T06:03:29.045Z,4.88
2022-12-25T06:05:56.409Z,4.40
2022-12-25T06:08:23.648Z,3.97
2022-12-25T06:10:50.952Z,4.20
2022-12-25T06:13:18.147Z,4.47
2022-12-25T06:15:45.432Z,4.30
2022-12-25T06:18:12.662Z,4.00
2022-12-25T06:20:42.991Z,4.53
2022-12-25T06:23:10.558Z,3.90
2022-12-25T06:25:41.210Z,4.43
2022-12-25T06:28:08.567Z,4.70
2022-12-25T06:30:35.856Z,4.90
2022-12-25T06:33:03.492Z,4.40
2022-12-25T06:35:30.782Z,4.25
2022-12-25T06:37:58.098Z,4.20
2022-12-25T06:40:25.339Z,4.35
2022-12-25T06:42:53.193Z,4.45
2022-12-25T06:45:20.588Z,4.85
2022-12-25T06:47:47.903Z,4.97
2022-12-25T06:50:16.309Z,5.20
2022-12-25T06:52:43.524Z,5.30
2022-12-25T06:55:10.843Z,4.95
2022-12-25T06:57:38.125Z,5.07
2022-12-25T07:00:05.652Z,5.22
2022-12-25T07:02:33.752Z,4.95
2022-12-25T07:05:01.694Z,5.35
2022-12-25T07:07:28.947Z,4.82
2022-12-25T07:09:56.255Z,4.93
2022-12-25T07:12:24.616Z,5.47
2022-12-25T07:14:54.396Z,4.80
2022-12-25T07:17:21.851Z,4.97
2022-12-25T07:19:49.276Z,4.90
2022-12-25T07:22:17.045Z,4.70
2022-12-25T07:24:44.273Z,4.72
2022-12-25T07:27:11.652Z,4.75
2022-12-25T07:29:38.996Z,5.25
2022-12-25T07:32:06.463Z,4.80
2022-12-25T07:34:33.829Z,4.88
2022-12-25T07:37:01.147Z,5.05
2022-12-25T07:39:28.490Z,4.55
2022-12-25T07:41:55.773Z,5.03
2022-12-25T07:44:23.066Z,4.88
2022-12-25T07:46:50.315Z,4.50
2022-12-25T07:49:17.560Z,5.10
2022-12-25T07:51:44.875Z,5.25
2022-12-25T07:54:12.215Z,5.28
2022-12-25T07:56:39.520Z,4.60
2022-12-25T07:59:06.877Z,4.50
2022-12-25T08:01:34.282Z,5.13
2022-12-25T08:04:03.174Z,4.63
2022-12-25T08:06:32.602Z,4.85
2022-12-25T08:09:03.961Z,4.82
2022-12-25T08:11:34.729Z,4.88
2022-12-25T08:14:02.269Z,4.35
2022-12-25T08:16:29.540Z,4.88
2022-12-25T08:18:56.777Z,4.50
2022-12-25T08:21:24.034Z,4.30
2022-12-25T08:23:51.337Z,4.90
2022-12-25T08:26:20.857Z,4.20
2022-12-25T08:28:48.740Z,4.25
2022-12-25T08:31:18.183Z,4.20
2022-12-25T08:33:45.718Z,3.80
2022-12-25T08:36:13.818Z,4.13
2022-12-25T08:38:41.479Z,4.22
2022-12-25T08:41:08.893Z,3.92
2022-12-25T08:43:36.209Z,3.90
2022-12-25T08:46:03.750Z,4.43
2022-12-25T08:48:31.040Z,4.25
2022-12-25T08:51:00.545Z,4.55
2022-12-25T08:53:27.881Z,4.78
2022-12-25T08:55:59.124Z,4.18
2022-12-25T08:58:26.609Z,4.57
2022-12-25T09:00:54.250Z,4.57
2022-12-25T09:03:22.188Z,4.50
2022-12-25T09:05:49.566Z,3.92
2022-12-25T09:08:16.905Z,4.50
2022-12-25T09:10:44.217Z,3.88
2022-12-25T09:13:12.854Z,3.65
2022-12-25T09:15:40.624Z,4.38
2022-12-25T09:18:07.993Z,3.65
2022-12-25T09:20:35.214Z,3.80
2022-12-25T09:23:02.500Z,4.25
2022-12-25T09:25:29.725Z,3.67
2022-12-25T09:27:57.591Z,3.47
2022-12-25T09:30:24.854Z,3.25
2022-12-25T09:32:52.226Z,3.65
2022-12-25T09:35:19.637Z,3.35
2022-12-25T09:37:49.076Z,3.45
2022-12-25T09:42:51.713Z,3.78
2022-12-25T09:45:20.550Z,3.78
2022-12-25T09:47:51.620Z,3.60
2022-12-25T09:50:25.118Z,3.47
2022-12-25T09:52:55.435Z,4.05
2022-12-25T09:55:24.554Z,3.80
2022-12-25T09:57:56.577Z,3.80
2022-12-25T10:00:25.124Z,3.50
2022-12-25T10:03:01.928Z,3.72
2022-12-25T10:06:06.497Z,3.95
2022-12-25T10:08:36.880Z,3.90
2022-12-25T10:11:22.953Z,3.92
2022-12-25T10:14:00.728Z,3.63
2022-12-25T10:16:37.783Z,3.63
2022-12-25T10:19:10.310Z,3.80
2022-12-25T10:21:37.919Z,3.70
2022-12-25T10:24:11.164Z,3.75
2022-12-25T10:26:38.441Z,3.33
2022-12-25T10:29:05.677Z,3.65
2022-12-25T10:31:35.499Z,3.53
2022-12-25T10:34:03.161Z,3.80
2022-12-25T10:36:32.179Z,3.53
2022-12-25T10:38:59.531Z,3.60
2022-12-25T10:41:42.800Z,3.47
2022-12-25T10:44:14.214Z,3.78
2022-12-25T10:46:42.288Z,4.00
2022-12-25T10:49:14.942Z,3.88
2022-12-25T10:51:42.211Z,4.50
2022-12-25T10:54:21.638Z,4.00
2022-12-25T10:56:59.282Z,4.03
2022-12-25T10:59:27.971Z,3.97
2022-12-25T11:01:56.654Z,3.88
2022-12-25T11:04:28.725Z,4.15
2022-12-25T11:07:02.147Z,4.80
2022-12-25T11:09:29.877Z,4.22
2022-12-25T11:11:57.219Z,4.47
2022-12-25T11:14:25.453Z,4.50
2022-12-25T11:16:52.681Z,4.57
2022-12-25T11:19:33.145Z,4.90
2022-12-25T11:22:01.298Z,5.03
2022-12-25T11:24:33.534Z,4.78
2022-12-25T11:27:02.237Z,5.18
2022-12-25T11:29:41.757Z,5.20
2022-12-25T11:32:18.520Z,5.20
2022-12-25T11:34:47.370Z,5.18
2022-12-25T11:37:20.087Z,5.70
2022-12-25T11:39:49.994Z,6.07
2022-12-25T11:42:30.300Z,5.88
2022-12-25T11:45:03.794Z,6.50
2022-12-25T11:47:51.483Z,6.20
2022-12-25T11:50:37.079Z,5.88
2022-12-25T11:53:06.733Z,6.25
2022-12-25T11:55:43.294Z,6.78
2022-12-25T11:58:28.798Z,6.82
2022-12-25T12:00:57.248Z,6.78
2022-12-25T12:03:37.879Z,6.35
2022-12-25T12:06:07.972Z,6.80
2022-12-25T12:08:36.187Z,6.75
2022-12-25T12:11:16.126Z,7.45
2022-12-25T12:14:02.000Z,6.97
2022-12-25T12:16:29.925Z,7.03
2022-12-25T12:18:57.696Z,6.65
2022-12-25T12:21:26.776Z,7.38
2022-12-25T12:23:57.234Z,6.93
2022-12-25T12:26:26.111Z,7.68
2022-12-25T12:28:56.027Z,7.40
2022-12-25T12:31:23.744Z,7.15
2022-12-25T12:33:56.709Z,7.25
2022-12-25T12:36:35.778Z,7.88
2022-12-25T12:39:06.094Z,7.22
2022-12-25T12:41:47.712Z,7.32
2022-12-25T12:44:17.366Z,8.15
2022-12-25T12:46:52.289Z,7.20
2022-12-25T12:49:32.322Z,7.57
2022-12-25T12:52:09.478Z,7.95
2022-12-25T12:54:53.141Z,7.80
2022-12-25T12:57:25.446Z,7.22
2022-12-25T12:59:52.713Z,7.32
2022-12-25T13:03:01.511Z,7.13
2022-12-25T13:05:50.597Z,7.55
2022-12-25T13:08:24.080Z,6.95
2022-12-25T13:10:53.091Z,7.28
2022-12-25T13:13:28.239Z,7.50
2022-12-25T13:15:57.585Z,6.82
2022-12-25T13:18:24.971Z,7.10
2022-12-25T13:20:57.085Z,7.03
2022-12-25T13:23:32.543Z,6.85
2022-12-25T13:26:01.830Z,6.80
2022-12-25T13:28:36.544Z,8.02
2022-12-25T13:31:20.677Z,10.45
2022-12-25T13:33:50.944Z,8.15
2022-12-25T13:36:18.451Z,8.15
2022-12-25T13:38:46.568Z,7.75
2022-12-25T13:41:37.507Z,6.78
2022-12-25T13:44:07.685Z,7.93
2022-12-25T13:46:35.176Z,7.65
2022-12-25T13:49:02.929Z,7.82
2022-12-25T13:51:30.225Z,7.95
2022-12-25T13:54:07.701Z,7.70
2022-12-25T13:56:36.308Z,7.50
2022-12-25T13:59:05.096Z,7.25
2022-12-25T14:01:32.572Z,7.90
2022-12-25T14:03:59.883Z,7.50
2022-12-25T14:06:31.378Z,7.57
2022-12-25T14:08:59.382Z,7.18
2022-12-25T14:11:27.808Z,7.55
2022-12-25T14:13:57.267Z,7.80
2022-12-25T14:16:25.075Z,7.65
2022-12-25T14:18:53.489Z,7.60
2022-12-25T14:21:33.155Z,7.40
2022-12-25T14:24:00.767Z,7.07
2022-12-25T14:26:34.397Z,7.50
2022-12-25T14:29:01.650Z,7.57
2022-12-25T14:31:29.389Z,7.03
2022-12-25T14:33:56.837Z,7.72
2022-12-25T14:36:24.129Z,7.50
2022-12-25T14:39:02.172Z,7.50
2022-12-25T14:41:33.953Z,7.07
2022-12-25T14:44:02.566Z,7.50
2022-12-25T14:46:31.520Z,6.95
2022-12-25T14:48:59.584Z,7.07
2022-12-25T14:51:27.025Z,6.90
2022-12-25T14:53:56.471Z,7.38
2022-12-25T14:58:58.481Z,7.00
2022-12-25T15:01:32.467Z,7.03
2022-12-25T15:04:05.926Z,7.32
2022-12-25T15:06:33.445Z,7.53
2022-12-25T15:09:01.881Z,7.30
2022-12-25T15:11:29.426Z,7.57
2022-12-25T15:13:56.816Z,7.38
2022-12-25T15:16:26.124Z,7.75
2022-12-25T15:21:28.266Z,7.95
2022-12-25T15:23:56.744Z,7.70
2022-12-25T15:26:24.500Z,8.30
2022-12-25T15:28:51.948Z,8.13
2022-12-25T15:31:27.015Z,8.13
2022-12-25T15:33:55.312Z,8.10
2022-12-25T15:36:22.938Z,8.75
2022-12-25T15:38:50.629Z,9.00
2022-12-25T15:41:38.025Z,7.78
2022-12-25T15:44:06.128Z,8.50
2022-12-25T15:46:34.393Z,7.82
2022-12-25T15:49:01.799Z,8.35
2022-12-25T15:51:29.128Z,8.27
2022-12-25T15:53:56.514Z,8.82
2022-12-25T15:56:24.025Z,8.73
2022-12-25T15:58:51.336Z,7.93
2022-12-25T16:01:20.208Z,8.55
2022-12-25T16:03:48.213Z,8.02
2022-12-25T16:06:17.239Z,7.72
2022-12-25T16:08:44.988Z,8.13
2022-12-25T16:11:12.314Z,8.13
2022-12-25T16:13:39.587Z,7.70
2022-12-25T16:16:07.305Z,7.78
2022-12-25T16:18:34.634Z,7.80
2022-12-25T16:21:01.872Z,6.88
2022-12-25T16:23:29.179Z,7.57
2022-12-25T16:25:56.486Z,7.28
2022-12-25T16:28:23.759Z,7.28
2022-12-25T16:30:51.264Z,7.43
2022-12-25T16:33:18.565Z,7.28
2022-12-25T16:35:47.142Z,7.68
2022-12-25T16:38:14.470Z,7.25
2022-12-25T16:40:41.774Z,7.20
2022-12-25T16:43:09.025Z,7.18
2022-12-25T16:45:39.959Z,7.72
2022-12-25T16:48:08.738Z,7.75
2022-12-25T16:50:38.299Z,7.65
2022-12-25T16:53:05.674Z,8.27
2022-12-25T16:55:34.112Z,7.38
2022-12-25T16:58:01.500Z,8.02
2022-12-25T17:00:28.908Z,7.68
2022-12-25T17:02:57.021Z,8.27
2022-12-25T17:05:25.246Z,7.97
2022-12-25T17:07:52.597Z,8.32
2022-12-25T17:10:21.318Z,8.75
2022-12-25T17:12:48.878Z,8.20
2022-12-25T17:15:16.147Z,8.32
2022-12-25T17:17:43.455Z,8.80
2022-12-25T17:20:10.984Z,9.05
2022-12-25T17:22:38.336Z,8.90
2022-12-25T17:25:05.982Z,8.50
2022-12-25T17:27:33.334Z,8.55
2022-12-25T17:30:00.700Z,8.95
2022-12-25T17:32:27.994Z,9.07
2022-12-25T17:34:55.347Z,7.80
2022-12-25T17:37:24.902Z,8.45
2022-12-25T17:39:52.175Z,8.73
2022-12-25T17:42:21.484Z,8.73
2022-12-25T17:44:48.863Z,8.90
2022-12-25T17:47:16.307Z,9.23
2022-12-25T17:49:43.602Z,8.90
2022-12-25T17:52:10.897Z,8.73
2022-12-25T17:54:40.508Z,8.50
2022-12-25T17:57:07.808Z,8.32
2022-12-25T17:59:35.267Z,7.78
2022-12-25T18:02:02.704Z,7.90
2022-12-25T18:04:30.181Z,7.85
2022-12-25T18:06:57.423Z,8.18
2022-12-25T18:09:24.696Z,7.93
2022-12-25T18:11:52.033Z,7.70
2022-12-25T18:14:19.397Z,7.88
2022-12-25T18:16:46.793Z,7.75
2022-12-25T18:19:18.396Z,8.18
2022-12-25T18:21:45.766Z,7.88
2022-12-25T18:24:13.114Z,8.00
2022-12-25T18:26:40.437Z,8.23
2022-12-25T18:29:07.823Z,8.02
2022-12-25T18:31:37.477Z,7.72
2022-12-25T18:34:05.215Z,8.63
2022-12-25T18:36:32.710Z,8.88
2022-12-25T18:39:00.248Z,8.80
2022-12-25T18:41:28.713Z,9.05
2022-12-25T18:43:56.326Z,9.40
2022-12-25T18:46:25.349Z,9.52
2022-12-25T18:51:20.476Z,8.93
2022-12-25T18:53:47.828Z,8.68
2022-12-25T18:56:17.223Z,8.98
2022-12-25T18:58:45.185Z,8.70
2022-12-25T19:01:12.705Z,9.00
2022-12-25T19:03:40.125Z,8.63
2022-12-25T19:06:07.528Z,8.05
2022-12-25T19:08:34.856Z,7.93
2022-12-25T19:11:06.318Z,8.07
2022-12-25T19:13:33.659Z,8.23
2022-12-25T19:16:01.284Z,8.32
2022-12-25T19:18:28.630Z,8.57
2022-12-25T19:20:55.850Z,8.35
2022-12-25T19:23:23.118Z,7.88
2022-12-25T19:25:50.573Z,8.73
2022-12-25T19:28:17.849Z,8.23
2022-12-25T19:30:45.363Z,8.07
2022-12-25T19:33:17.748Z,8.32
2022-12-25T19:35:46.847Z,9.25
2022-12-25T19:38:14.130Z,8.27
2022-12-25T19:41:00.262Z,9.05
2022-12-25T19:43:32.638Z,7.82
2022-12-25T19:46:01.473Z,7.78
2022-12-25T19:48:29.669Z,7.53
2022-12-25T19:50:57.183Z,7.95
2022-12-25T19:53:24.627Z,8.18
2022-12-25T19:55:52.989Z,7.97
2022-12-25T19:58:20.711Z,7.70
2022-12-25T20:00:58.266Z,7.32
2022-12-25T20:03:25.786Z,7.45
2022-12-25T20:05:53.205Z,7.78
2022-12-25T20:08:20.557Z,7.68
2022-12-25T20:10:47.863Z,7.82
2022-12-25T20:13:15.167Z,8.07
2022-12-25T20:15:42.386Z,8.02
2022-12-25T20:18:09.612Z,8.40
2022-12-25T20:20:36.878Z,7.78
2022-12-25T20:23:04.357Z,7.70
2022-12-25T20:25:31.623Z,8.00
2022-12-25T20:28:00.511Z,7.82
2022-12-25T20:30:27.860Z,7.10
2022-12-25T20:32:55.313Z,7.50
2022-12-25T20:35:22.564Z,8.15
2022-12-25T20:37:49.980Z,7.82
2022-12-25T20:40:17.388Z,7.38
2022-12-25T20:42:44.671Z,8.00
2022-12-25T20:45:12.601Z,7.70
2022-12-25T20:47:39.895Z,7.95
2022-12-25T20:50:07.552Z,7.82
2022-12-25T20:52:34.851Z,7.55
2022-12-25T20:55:04.706Z,7.82
2022-12-25T20:57:32.041Z,8.20
2022-12-25T20:59:59.325Z,7.55
2022-12-25T21:02:35.042Z,7.97
2022-12-25T21:05:03.705Z,7.88
2022-12-25T21:07:30.988Z,8.63
2022-12-25T21:09:59.324Z,8.18
2022-12-25T21:12:26.642Z,8.10
2022-12-25T21:14:53.921Z,7.57
2022-12-25T21:17:21.367Z,8.75
2022-12-25T21:19:48.692Z,8.75
2022-12-25T21:25:00.513Z,7.80
2022-12-25T21:27:29.428Z,8.60
2022-12-25T21:29:56.759Z,8.68
2022-12-25T21:32:42.666Z,8.63
2022-12-25T21:35:10.360Z,8.60
2022-12-25T21:37:37.773Z,8.57
2022-12-25T21:40:08.107Z,8.95
2022-12-25T21:42:38.618Z,8.52
2022-12-25T21:45:06.110Z,8.43
2022-12-25T21:47:59.867Z,8.57
2022-12-25T21:50:39.464Z,8.43
2022-12-25T21:53:07.342Z,8.57
2022-12-25T21:55:37.532Z,9.10
2022-12-25T21:58:04.802Z,9.70
2022-12-25T22:00:32.026Z,9.85
2022-12-25T22:02:59.550Z,9.18
2022-12-25T22:05:45.471Z,9.02
2022-12-25T22:08:12.762Z,9.50
2022-12-25T22:10:42.834Z,10.50
2022-12-25T22:13:28.721Z,9.60
2022-12-25T22:16:21.820Z,9.50
2022-12-25T22:19:07.648Z,10.10
2022-12-25T22:21:34.928Z,9.75
2022-12-25T22:24:02.288Z,9.18
2022-12-25T22:26:30.770Z,9.45
2022-12-25T22:28:58.010Z,9.82
2022-12-25T22:31:25.367Z,9.15
2022-12-25T22:33:52.770Z,9.15
2022-12-25T22:36:19.995Z,9.07
2022-12-25T22:38:47.247Z,8.85
2022-12-25T22:41:14.462Z,8.43
2022-12-25T22:44:15.776Z,7.88
2022-12-25T22:46:29.085Z,7.93
2022-12-25T22:48:56.361Z,8.65
2022-12-25T22:51:23.618Z,7.72
2022-12-25T22:53:50.969Z,8.25
2022-12-25T22:56:19.124Z,8.15
2022-12-25T22:58:46.353Z,7.30
2022-12-25T23:01:13.972Z,7.95
2022-12-25T23:03:41.714Z,7.75
2022-12-25T23:06:09.286Z,7.75
2022-12-25T23:08:36.561Z,7.32
2022-12-25T23:11:04.296Z,7.05
2022-12-25T23:13:50.690Z,6.95
2022-12-25T23:16:18.366Z,6.88
2022-12-25T23:19:04.235Z,6.22
2022-12-25T23:21:50.779Z,7.03
2022-12-25T23:24:36.555Z,7.05
2022-12-25T23:27:03.897Z,6.03
2022-12-25T23:29:37.029Z,6.80
2022-12-25T23:32:09.026Z,7.65
2022-12-25T23:34:37.379Z,6.97
2022-12-25T23:37:04.687Z,6.97
2022-12-25T23:39:31.972Z,6.97
2022-12-25T23:41:59.546Z,7.00
2022-12-25T23:44:28.655Z,6.75
2022-12-25T23:46:56.478Z,7.07
2022-12-25T23:49:24.413Z,6.95
2022-12-25T23:51:52.051Z,7.47
2022-12-25T23:54:22.174Z,7.90
2022-12-25T23:56:50.053Z,7.32
2022-12-25T23:59:17.882Z,8.05
